createdAt,value
2022-11-20T00:01:23.177Z,99973.38
2022-11-20T00:03:54.763Z,99976.81
2022-11-20T00:06:23.359Z,99976.91
2022-11-20T00:08:51.163Z,99980.38
2022-11-20T00:11:20.579Z,99980.38
2022-11-20T00:13:49.840Z,99986.28
2022-11-20T00:16:19.681Z,99971.94
2022-11-20T00:18:47.683Z,99971.78
2022-11-20T00:21:18.452Z,99976.13
2022-11-20T00:23:47.120Z,99980.38
2022-11-20T00:26:16.491Z,99986.28
2022-11-20T00:28:45.605Z,99985.44
2022-11-20T00:31:16.778Z,99984.50
2022-11-20T00:33:45.115Z,99993.03
2022-11-20T00:36:14.768Z,99990.63
2022-11-20T00:38:42.348Z,99987.19
2022-11-20T00:41:11.478Z,99983.81
2022-11-20T00:43:39.373Z,99979.66
2022-11-20T00:46:09.558Z,99974.59
2022-11-20T00:48:37.100Z,99978.75
2022-11-20T00:51:04.284Z,99976.91
2022-11-20T00:53:32.154Z,99982.81
2022-11-20T00:56:01.958Z,99987.81
2022-11-20T00:58:34.722Z,99984.41
2022-11-20T01:01:06.431Z,99983.63
2022-11-20T01:03:40.999Z,99975.00
2022-11-20T01:06:12.717Z,99986.88
2022-11-20T01:08:40.289Z,99981.78
2022-11-20T01:11:13.889Z,99985.25
2022-11-20T01:13:42.359Z,99981.88
2022-11-20T01:16:13.957Z,99983.63
2022-11-20T01:18:43.960Z,99981.88
2022-11-20T01:21:13.681Z,99983.53
2022-11-20T01:23:42.671Z,99981.00
2022-11-20T01:26:15.364Z,99985.16
2022-11-20T01:28:42.693Z,99976.53
2022-11-20T01:31:20.181Z,99985.94
2022-11-20T01:33:50.041Z,99971.44
2022-11-20T01:36:18.604Z,99974.91
2022-11-20T01:38:45.827Z,99974.78
2022-11-20T01:41:34.768Z,99978.34
2022-11-20T01:44:02.369Z,99976.53
2022-11-20T01:46:29.592Z,99968.00
2022-11-20T01:49:09.817Z,99970.63
2022-11-20T01:51:45.278Z,99952.56
2022-11-20T01:54:25.553Z,99968.09
2022-11-20T01:56:57.409Z,99973.16
2022-11-20T01:59:27.272Z,99964.63
2022-11-20T02:01:54.829Z,99963.00
2022-11-20T02:04:23.361Z,99961.22
2022-11-20T02:07:00.497Z,99968.19
2022-11-20T02:09:28.975Z,99968.19
2022-11-20T02:11:57.327Z,99966.47
2022-11-20T02:14:25.638Z,99959.56
2022-11-20T02:16:53.161Z,99947.59
2022-11-20T02:19:29.558Z,99954.59
2022-11-20T02:22:29.155Z,99956.31
2022-11-20T02:24:56.721Z,99963.09
2022-11-20T02:27:24.209Z,99951.16
2022-11-20T02:30:02.203Z,99956.41
2022-11-20T02:32:34.870Z,99961.47
2022-11-20T02:35:31.401Z,99959.88
2022-11-20T02:38:02.334Z,99950.56
2022-11-20T02:40:30.371Z,99953.94
2022-11-20T02:42:58.333Z,99962.25
2022-11-20T02:45:26.343Z,99958.03
2022-11-20T02:47:54.208Z,99959.78
2022-11-20T02:50:21.920Z,99955.56
2022-11-20T02:52:49.088Z,99952.94
2022-11-20T02:55:16.391Z,99963.88
2022-11-20T02:57:43.511Z,99961.38
2022-11-20T03:00:11.364Z,99954.47
2022-11-20T03:02:38.409Z,99968.09
2022-11-20T03:05:05.609Z,99958.66
2022-11-20T03:07:32.876Z,99962.81
2022-11-20T03:10:00.104Z,99945.75
2022-11-20T03:12:27.209Z,99957.84
2022-11-20T03:14:54.959Z,99948.53
2022-11-20T03:17:22.050Z,99946.84
2022-11-20T03:19:49.128Z,99958.16
2022-11-20T03:22:16.160Z,99951.34
2022-11-20T03:24:43.240Z,99949.72
2022-11-20T03:27:10.311Z,99951.41
2022-11-20T03:29:37.507Z,99953.94
2022-11-20T03:32:04.824Z,99958.16
2022-11-20T03:34:31.957Z,99939.25
2022-11-20T03:36:59.114Z,99953.88
2022-11-20T03:39:26.287Z,99961.47
2022-11-20T03:41:53.401Z,99958.03
2022-11-20T03:44:23.036Z,99957.22
2022-11-20T03:46:50.189Z,99954.59
2022-11-20T03:49:17.354Z,99954.59
2022-11-20T03:51:44.722Z,99949.31
2022-11-20T03:54:12.090Z,99949.97
2022-11-20T03:56:40.452Z,99956.91
2022-11-20T03:59:08.224Z,99959.47
2022-11-20T04:01:38.628Z,99964.63
2022-11-20T04:04:06.548Z,99966.38
2022-11-20T04:06:38.682Z,99944.22
2022-11-20T04:09:06.885Z,99954.59
2022-11-20T04:11:36.318Z,99963.88
2022-11-20T04:14:07.033Z,99954.59
2022-11-20T04:16:36.556Z,99957.94
2022-11-20T04:19:06.191Z,99956.31
2022-11-20T04:21:33.838Z,99933.38
2022-11-20T04:24:01.035Z,99950.53
2022-11-20T04:26:30.973Z,99948.00
2022-11-20T04:28:59.019Z,99942.91
2022-11-20T04:31:31.672Z,99939.56
2022-11-20T04:34:06.882Z,99936.16
2022-11-20T04:36:35.157Z,99935.31
2022-11-20T04:39:05.574Z,99936.28
2022-11-20T04:41:36.128Z,99936.19
2022-11-20T04:44:05.004Z,99937.84
2022-11-20T04:46:41.747Z,99935.31
2022-11-20T04:49:09.806Z,99932.75
2022-11-20T04:51:36.962Z,99936.19
2022-11-20T04:54:04.354Z,99930.25
2022-11-20T04:56:31.568Z,99925.84
2022-11-20T04:59:02.213Z,99920.88
2022-11-20T05:01:29.509Z,99933.63
2022-11-20T05:03:56.689Z,99926.97
2022-11-20T05:06:23.962Z,99913.31
2022-11-20T05:08:51.401Z,99915.00
2022-11-20T05:11:21.235Z,99921.78
2022-11-20T05:13:49.237Z,99914.16
2022-11-20T05:16:19.163Z,99903.84
2022-11-20T05:18:46.533Z,99914.84
2022-11-20T05:21:14.488Z,99923.41
2022-11-20T05:23:42.319Z,99925.16
2022-11-20T05:26:17.281Z,99929.31
2022-11-20T05:28:44.389Z,99944.44
2022-11-20T05:31:14.402Z,99933.31
2022-11-20T05:33:43.370Z,99935.09
2022-11-20T05:36:11.011Z,99929.31
2022-11-20T05:38:38.479Z,99929.22
2022-11-20T05:41:31.650Z,99931.03
2022-11-20T05:44:00.147Z,99939.47
2022-11-20T05:46:28.982Z,99931.75
2022-11-20T05:48:58.284Z,99930.94
2022-11-20T05:51:26.355Z,99927.56
2022-11-20T05:53:53.479Z,99933.53
2022-11-20T05:56:22.681Z,99930.88
2022-11-20T05:58:50.812Z,99924.94
2022-11-20T06:01:21.240Z,99924.13
2022-11-20T06:03:48.984Z,99924.13
2022-11-20T06:06:17.882Z,99930.94
2022-11-20T06:08:45.999Z,99933.41
2022-11-20T06:11:14.751Z,99923.94
2022-11-20T06:13:43.198Z,99931.63
2022-11-20T06:16:11.558Z,99926.53
2022-11-20T06:18:39.262Z,99922.31
2022-11-20T06:21:09.002Z,99923.22
2022-11-20T06:23:37.041Z,99927.47
2022-11-20T06:26:12.344Z,99920.69
2022-11-20T06:28:39.572Z,99921.38
2022-11-20T06:31:07.721Z,99919.06
2022-11-20T06:33:34.921Z,99916.47
2022-11-20T06:36:07.430Z,99914.84
2022-11-20T06:38:38.075Z,99924.22
2022-11-20T06:41:06.789Z,99920.88
2022-11-20T06:43:34.002Z,99920.88
2022-11-20T06:46:01.048Z,99913.88
2022-11-20T06:48:29.588Z,99923.41
2022-11-20T06:50:57.552Z,99925.19
2022-11-20T06:53:25.510Z,99927.78
2022-11-20T06:55:53.763Z,99928.66
2022-11-20T06:58:20.878Z,99907.25
2022-11-20T07:00:48.098Z,99924.50
2022-11-20T07:03:15.361Z,99915.22
2022-11-20T07:05:42.558Z,99916.97
2022-11-20T07:08:10.844Z,99919.44
2022-11-20T07:10:38.002Z,99919.53
2022-11-20T07:13:05.150Z,99926.25
2022-11-20T07:15:32.178Z,99920.38
2022-11-20T07:18:02.794Z,99919.53
2022-11-20T07:20:30.088Z,99912.72
2022-11-20T07:22:58.358Z,99904.44
2022-11-20T07:25:27.049Z,99909.69
2022-11-20T07:27:54.291Z,99904.75
2022-11-20T07:30:21.985Z,99894.84
2022-11-20T07:32:54.596Z,99902.72
2022-11-20T07:35:22.171Z,99891.84
2022-11-20T07:37:49.801Z,99893.69
2022-11-20T07:40:18.078Z,99897.09
2022-11-20T07:42:56.429Z,99899.63
2022-11-20T07:45:25.761Z,99889.38
2022-11-20T07:47:52.884Z,99896.94
2022-11-20T07:50:21.040Z,99896.94
2022-11-20T07:52:48.778Z,99893.53
2022-11-20T07:55:16.461Z,99890.31
2022-11-20T07:57:43.802Z,99902.19
2022-11-20T08:00:12.575Z,99895.41
2022-11-20T08:02:41.420Z,99893.03
2022-11-20T08:05:12.434Z,99888.84
2022-11-20T08:07:45.372Z,99882.91
2022-11-20T08:10:16.548Z,99889.13
2022-11-20T08:13:10.003Z,99889.13
2022-11-20T08:15:38.604Z,99889.22
2022-11-20T08:21:03.243Z,99887.56
2022-11-20T08:23:30.524Z,99881.78
2022-11-20T08:25:57.629Z,99879.44
2022-11-20T08:28:24.760Z,99882.91
2022-11-20T08:30:52.012Z,99876.19
2022-11-20T08:33:19.615Z,99874.38
2022-11-20T08:35:47.134Z,99879.63
2022-11-20T08:38:14.403Z,99871.81
2022-11-20T08:40:41.569Z,99876.09
2022-11-20T08:43:08.783Z,99872.72
2022-11-20T08:45:36.003Z,99876.19
2022-11-20T08:48:04.635Z,99866.09
2022-11-20T08:50:33.631Z,99864.47
2022-11-20T08:53:05.973Z,99867.69
2022-11-20T08:55:33.431Z,99867.66
2022-11-20T08:58:05.049Z,99857.31
2022-11-20T09:00:33.618Z,99857.47
2022-11-20T09:03:02.410Z,99861.09
2022-11-20T09:05:29.921Z,99866.25
2022-11-20T09:07:58.592Z,99851.84
2022-11-20T09:10:26.341Z,99861.50
2022-11-20T09:12:54.920Z,99864.81
2022-11-20T09:15:22.763Z,99867.38
2022-11-20T09:17:57.536Z,99857.97
2022-11-20T09:20:25.165Z,99845.91
2022-11-20T09:22:52.613Z,99855.44
2022-11-20T09:25:20.059Z,99843.28
2022-11-20T09:27:47.452Z,99859.59
2022-11-20T09:30:16.482Z,99852.81
2022-11-20T09:32:44.357Z,99854.44
2022-11-20T09:35:11.979Z,99843.41
2022-11-20T09:37:39.605Z,99843.63
2022-11-20T09:40:07.885Z,99837.91
2022-11-20T09:43:20.244Z,99834.72
2022-11-20T09:46:10.186Z,99840.13
2022-11-20T09:49:19.584Z,99841.97
2022-11-20T09:52:00.279Z,99839.50
2022-11-20T09:54:40.846Z,99830.75
2022-11-20T09:57:20.105Z,99839.22
2022-11-20T09:59:52.422Z,99831.66
2022-11-20T10:02:25.682Z,99823.25
2022-11-20T10:05:24.404Z,99820.81
2022-11-20T10:08:03.542Z,99823.34
2022-11-20T10:10:41.118Z,99821.59
2022-11-20T10:13:16.662Z,99815.09
2022-11-20T10:16:05.040Z,99813.50
2022-11-20T10:19:07.283Z,99815.44
2022-11-20T10:21:57.325Z,99815.63
2022-11-20T10:24:44.698Z,99815.69
2022-11-20T10:27:30.183Z,99818.28
2022-11-20T10:30:15.964Z,99820.94
2022-11-20T10:33:04.904Z,99807.25
2022-11-20T10:36:04.501Z,99814.28
2022-11-20T10:38:55.900Z,99819.50
2022-11-20T10:41:33.133Z,99814.41
2022-11-20T10:44:40.422Z,99807.84
2022-11-20T10:47:18.297Z,99816.56
2022-11-20T10:49:52.482Z,99813.22
2022-11-20T10:52:38.093Z,99813.38
2022-11-20T10:55:19.922Z,99805.69
2022-11-20T10:58:09.091Z,99807.25
2022-11-20T11:00:36.541Z,99808.00
2022-11-20T11:03:04.498Z,99796.97
2022-11-20T11:05:43.817Z,99804.72
2022-11-20T11:08:20.454Z,99803.69
2022-11-20T11:10:58.755Z,99801.09
2022-11-20T11:13:28.905Z,99805.25
2022-11-20T11:15:56.199Z,99801.03
2022-11-20T11:18:34.153Z,99790.78
2022-11-20T11:21:04.343Z,99795.94
2022-11-20T11:23:39.347Z,99801.78
2022-11-20T11:26:19.181Z,99799.28
2022-11-20T11:29:00.759Z,99802.50
2022-11-20T11:31:30.709Z,99788.94
2022-11-20T11:34:09.339Z,99790.50
2022-11-20T11:36:37.085Z,99787.91
2022-11-20T11:39:07.013Z,99788.88
2022-11-20T11:41:38.690Z,99789.00
2022-11-20T11:44:59.712Z,99784.91
2022-11-20T11:47:32.323Z,99789.16
2022-11-20T11:50:24.423Z,99790.13
2022-11-20T11:53:20.617Z,99784.28
2022-11-20T11:56:15.009Z,99783.34
2022-11-20T11:58:49.655Z,99784.22
2022-11-20T12:01:34.055Z,99783.97
2022-11-20T12:04:07.119Z,99785.59
2022-11-20T12:06:39.574Z,99782.88
2022-11-20T12:09:11.241Z,99779.41
2022-11-20T12:11:54.969Z,99773.53
2022-11-20T12:14:38.144Z,99776.13
2022-11-20T12:17:05.529Z,99767.53
2022-11-20T12:19:35.384Z,99775.22
2022-11-20T12:22:35.777Z,99765.03
2022-11-20T12:25:13.131Z,99765.97
2022-11-20T12:27:57.462Z,99765.22
2022-11-20T12:30:25.932Z,99763.53
2022-11-20T12:33:19.250Z,99760.06
2022-11-20T12:36:07.729Z,99750.63
2022-11-20T12:38:37.621Z,99750.66
2022-11-20T12:41:47.521Z,99743.03
2022-11-20T12:45:11.681Z,99737.94
2022-11-20T12:48:09.771Z,99742.25
2022-11-20T12:51:17.903Z,99734.66
2022-11-20T12:54:05.520Z,99738.00
2022-11-20T12:56:51.324Z,99742.06
2022-11-20T12:59:29.914Z,99742.00
2022-11-20T13:02:18.282Z,99740.22
2022-11-20T13:05:03.387Z,99733.47
2022-11-20T13:07:31.839Z,99732.63
2022-11-20T13:10:00.400Z,99722.28
2022-11-20T13:12:49.572Z,99721.44
2022-11-20T13:15:35.920Z,99725.66
2022-11-20T13:18:05.443Z,99726.47
2022-11-20T13:20:35.611Z,99722.09
2022-11-20T13:23:02.565Z,99720.16
2022-11-20T13:25:49.143Z,99718.44
2022-11-20T13:28:16.262Z,99716.72
2022-11-20T13:30:55.218Z,99706.47
2022-11-20T13:33:25.526Z,99706.47
2022-11-20T13:35:59.599Z,99703.88
2022-11-20T13:38:31.259Z,99704.69
2022-11-20T13:41:22.208Z,99707.22
2022-11-20T13:43:49.597Z,99699.53
2022-11-20T13:46:17.080Z,99698.56
2022-11-20T13:48:46.999Z,99699.47
2022-11-20T13:51:54.374Z,99696.97
2022-11-20T13:54:44.959Z,99693.41
2022-11-20T13:57:45.733Z,99695.09
2022-11-20T14:00:21.288Z,99688.25
2022-11-20T14:02:59.219Z,99695.91
2022-11-20T14:05:26.395Z,99698.44
2022-11-20T14:07:55.239Z,99694.22
2022-11-20T14:10:31.082Z,99695.09
2022-11-20T14:12:59.349Z,99695.91
2022-11-20T14:15:31.083Z,99699.22
2022-11-20T14:17:59.279Z,99691.41
2022-11-20T14:20:30.178Z,99698.25
2022-11-20T14:22:57.407Z,99699.88
2022-11-20T14:25:32.121Z,99699.06
2022-11-20T14:28:01.482Z,99693.88
2022-11-20T14:30:38.699Z,99699.69
2022-11-20T14:33:06.401Z,99690.25
2022-11-20T14:35:41.876Z,99688.38
2022-11-20T14:38:13.851Z,99696.91
2022-11-20T14:40:41.160Z,99679.06
2022-11-20T14:43:26.702Z,99690.13
2022-11-20T14:45:59.314Z,99687.50
2022-11-20T14:48:38.413Z,99678.22
2022-11-20T14:51:05.589Z,99679.88
2022-11-20T14:53:32.709Z,99680.69
2022-11-20T14:56:01.979Z,99683.22
2022-11-20T14:58:34.631Z,99684.06
2022-11-20T15:01:08.984Z,99676.38
2022-11-20T15:03:41.602Z,99679.72
2022-11-20T15:06:13.002Z,99672.09
2022-11-20T15:08:40.212Z,99669.56
2022-11-20T15:11:20.981Z,99663.47
2022-11-20T15:13:48.085Z,99664.41
2022-11-20T15:16:20.816Z,99658.41
2022-11-20T15:18:48.579Z,99666.94
2022-11-20T15:21:17.970Z,99666.13
2022-11-20T15:23:45.494Z,99670.28
2022-11-20T15:26:19.802Z,99666.94
2022-11-20T15:28:51.287Z,99660.88
2022-11-20T15:31:24.120Z,99658.31
2022-11-20T15:33:51.487Z,99642.16
2022-11-20T15:36:18.850Z,99655.00
2022-11-20T15:38:46.080Z,99655.84
2022-11-20T15:41:13.503Z,99648.19
2022-11-20T15:43:40.631Z,99655.81
2022-11-20T15:46:14.499Z,99652.38
2022-11-20T15:48:48.209Z,99655.81
2022-11-20T15:51:28.224Z,99659.25
2022-11-20T15:53:56.929Z,99653.31
2022-11-20T15:56:24.129Z,99656.63
2022-11-20T15:58:51.822Z,99647.31
2022-11-20T16:01:21.922Z,99654.09
2022-11-20T16:03:49.649Z,99657.41
2022-11-20T16:06:20.044Z,99654.94
2022-11-20T16:08:47.310Z,99644.59
2022-11-20T16:11:16.135Z,99650.72
2022-11-20T16:14:03.214Z,99636.97
2022-11-20T16:16:39.649Z,99634.41
2022-11-20T16:19:07.047Z,99639.50
2022-11-20T16:21:35.533Z,99643.75
2022-11-20T16:24:05.701Z,99636.97
2022-11-20T16:26:34.503Z,99634.44
2022-11-20T16:29:03.822Z,99633.56
2022-11-20T16:31:31.371Z,99631.75
2022-11-20T16:34:01.441Z,99636.97
2022-11-20T16:36:31.129Z,99628.41
2022-11-20T16:39:01.367Z,99629.25
2022-11-20T16:41:31.474Z,99635.13
2022-11-20T16:43:59.803Z,99636.84
2022-11-20T16:46:29.914Z,99635.13
2022-11-20T16:49:11.538Z,99633.25
2022-11-20T16:51:38.841Z,99643.56
2022-11-20T16:54:07.334Z,99646.09
2022-11-20T16:56:34.442Z,99643.50
2022-11-20T16:59:02.880Z,99641.81
2022-11-20T17:01:31.582Z,99640.06
2022-11-20T17:04:04.813Z,99645.16
2022-11-20T17:06:37.733Z,99634.09
2022-11-20T17:09:05.520Z,99630.66
2022-11-20T17:11:33.763Z,99638.34
2022-11-20T17:14:01.381Z,99633.19
2022-11-20T17:16:28.559Z,99629.91
2022-11-20T17:19:02.498Z,99623.88
2022-11-20T17:21:31.579Z,99631.53
2022-11-20T17:24:06.205Z,99624.72
2022-11-20T17:26:35.579Z,99617.94
2022-11-20T17:29:06.291Z,99610.97
2022-11-20T17:31:35.190Z,99610.97
2022-11-20T17:34:02.839Z,99613.63
2022-11-20T17:36:31.039Z,99611.16
2022-11-20T17:38:59.242Z,99611.94
2022-11-20T17:41:29.484Z,99612.84
2022-11-20T17:44:01.098Z,99606.94
2022-11-20T17:46:32.964Z,99612.06
2022-11-20T17:49:01.040Z,99611.22
2022-11-20T17:51:30.963Z,99609.56
2022-11-20T17:54:03.896Z,99601.84
2022-11-20T17:56:53.401Z,99606.13
2022-11-20T17:59:21.240Z,99595.00
2022-11-20T18:01:48.588Z,99594.09
2022-11-20T18:04:16.918Z,99598.25
2022-11-20T18:06:44.586Z,99602.50
2022-11-20T18:09:12.460Z,99597.31
2022-11-20T18:11:41.528Z,99599.81
2022-11-20T18:14:49.265Z,99593.81
2022-11-20T18:17:16.805Z,99591.28
2022-11-20T18:20:01.176Z,99598.91
2022-11-20T18:22:33.450Z,99596.38
2022-11-20T18:25:00.769Z,99587.84
2022-11-20T18:27:27.883Z,99587.00
2022-11-20T18:29:55.052Z,99587.00
2022-11-20T18:32:23.006Z,99580.28
2022-11-20T18:34:51.589Z,99582.00
2022-11-20T18:37:19.107Z,99573.56
2022-11-20T18:39:46.662Z,99582.06
2022-11-20T18:42:34.966Z,99578.66
2022-11-20T18:45:04.631Z,99582.94
2022-11-20T18:47:36.425Z,99582.94
2022-11-20T18:50:05.303Z,99593.19
2022-11-20T18:52:48.043Z,99578.66
2022-11-20T18:55:15.316Z,99596.63
2022-11-20T18:57:42.613Z,99593.25
2022-11-20T19:00:10.620Z,99599.25
2022-11-20T19:02:42.064Z,99597.59
2022-11-20T19:05:11.933Z,99590.88
2022-11-20T19:07:39.278Z,99600.16
2022-11-20T19:10:07.337Z,99595.91
2022-11-20T19:12:34.454Z,99586.59
2022-11-20T19:15:01.609Z,99592.59
2022-11-20T19:17:28.832Z,99594.22
2022-11-20T19:19:56.103Z,99584.06
2022-11-20T19:22:23.980Z,99588.38
2022-11-20T19:24:51.089Z,99595.97
2022-11-20T19:27:18.282Z,99590.88
2022-11-20T19:29:45.450Z,99585.81
2022-11-20T19:32:12.645Z,99590.03
2022-11-20T19:34:39.968Z,99585.81
2022-11-20T19:37:07.256Z,99585.88
2022-11-20T19:39:36.394Z,99576.44
2022-11-20T19:42:03.907Z,99581.69
2022-11-20T19:44:32.471Z,99564.53
2022-11-20T19:46:59.819Z,99586.00
2022-11-20T19:49:27.061Z,99580.91
2022-11-20T19:51:54.295Z,99579.28
2022-11-20T19:54:21.480Z,99575.88
2022-11-20T19:56:49.813Z,99578.38
2022-11-20T19:59:17.014Z,99569.06
2022-11-20T20:01:44.524Z,99577.47
2022-11-20T20:04:11.750Z,99580.97
2022-11-20T20:06:40.204Z,99577.63
2022-11-20T20:09:10.403Z,99585.22
2022-11-20T20:11:37.962Z,99577.47
2022-11-20T20:14:07.883Z,99573.19
2022-11-20T20:16:35.928Z,99572.19
2022-11-20T20:19:05.728Z,99574.81
2022-11-20T20:21:35.272Z,99584.06
2022-11-20T20:24:02.813Z,99581.47
2022-11-20T20:26:31.597Z,99582.28
2022-11-20T20:28:59.438Z,99578.84
2022-11-20T20:31:29.289Z,99577.22
2022-11-20T20:33:57.440Z,99581.44
2022-11-20T20:36:25.653Z,99583.94
2022-11-20T20:38:54.146Z,99573.56
2022-11-20T20:41:23.452Z,99586.41
2022-11-20T20:44:09.882Z,99584.66
2022-11-20T20:46:36.960Z,99584.69
2022-11-20T20:49:04.357Z,99573.63
2022-11-20T20:51:31.450Z,99582.22
2022-11-20T20:53:58.769Z,99565.09
2022-11-20T20:56:26.262Z,99576.13
2022-11-20T20:58:53.430Z,99577.81
2022-11-20T21:01:21.579Z,99578.47
2022-11-20T21:03:48.949Z,99566.47
2022-11-20T21:06:16.105Z,99578.34
2022-11-20T21:08:44.574Z,99569.75
2022-11-20T21:11:14.769Z,99563.69
2022-11-20T21:13:43.560Z,99573.13
2022-11-20T21:16:12.290Z,99581.56
2022-11-20T21:18:39.494Z,99573.06
2022-11-20T21:21:26.532Z,99567.84
2022-11-20T21:23:53.918Z,99570.31
2022-11-20T21:26:21.698Z,99564.34
2022-11-20T21:28:50.128Z,99540.25
2022-11-20T21:31:22.249Z,99560.81
2022-11-20T21:33:51.864Z,99554.69
2022-11-20T21:36:21.721Z,99568.22
2022-11-20T21:38:49.334Z,99568.16
2022-11-20T21:41:16.581Z,99558.84
2022-11-20T21:43:44.415Z,99563.84
2022-11-20T21:46:16.883Z,99560.47
2022-11-20T21:48:45.968Z,99562.16
2022-11-20T21:51:18.685Z,99566.34
2022-11-20T21:53:47.519Z,99560.41
2022-11-20T21:56:20.290Z,99556.09
2022-11-20T21:58:48.971Z,99555.97
2022-11-20T22:01:17.659Z,99549.13
2022-11-20T22:03:57.363Z,99548.16
2022-11-20T22:06:27.274Z,99556.59
2022-11-20T22:08:54.490Z,99550.59
2022-11-20T22:11:22.461Z,99551.44
2022-11-20T22:14:08.540Z,99553.00
2022-11-20T22:16:37.351Z,99546.97
2022-11-20T22:19:05.170Z,99547.72
2022-11-20T22:21:33.251Z,99551.19
2022-11-20T22:24:00.676Z,99547.72
2022-11-20T22:26:30.287Z,99549.41
2022-11-20T22:28:58.952Z,99546.81
2022-11-20T22:31:28.392Z,99529.63
2022-11-20T22:33:56.123Z,99540.81
2022-11-20T22:36:25.742Z,99538.97
2022-11-20T22:38:53.042Z,99529.47
2022-11-20T22:41:22.121Z,99537.28
2022-11-20T22:43:55.025Z,99538.97
2022-11-20T22:46:22.619Z,99536.44
2022-11-20T22:48:52.304Z,99525.31
2022-11-20T22:51:40.648Z,99532.13
2022-11-20T22:54:10.718Z,99537.19
2022-11-20T22:56:37.902Z,99533.75
2022-11-20T22:59:05.395Z,99529.38
2022-11-20T23:01:34.696Z,99551.44
2022-11-20T23:04:04.334Z,99545.44
2022-11-20T23:06:37.022Z,99544.59
2022-11-20T23:09:06.246Z,99547.97
2022-11-20T23:11:35.346Z,99542.00
2022-11-20T23:14:13.044Z,99536.06
2022-11-20T23:16:40.400Z,99536.84
2022-11-20T23:19:10.802Z,99530.91
2022-11-20T23:21:39.961Z,99536.78
2022-11-20T23:24:08.113Z,99530.00
2022-11-20T23:26:37.793Z,99519.78
2022-11-20T23:29:06.048Z,99518.03
2022-11-20T23:31:35.082Z,99521.41
2022-11-20T23:34:02.483Z,99526.47
2022-11-20T23:36:29.772Z,99522.16
2022-11-20T23:38:57.117Z,99508.44
2022-11-20T23:41:24.366Z,99519.50
2022-11-20T23:43:52.290Z,99522.94
2022-11-20T23:46:19.480Z,99516.06
2022-11-20T23:48:46.629Z,99518.78
2022-11-20T23:51:14.664Z,99505.06
2022-11-20T23:53:42.001Z,99512.72
2022-11-20T23:56:10.753Z,99500.75
2022-11-20T23:58:38.937Z,99501.59
